Terminal Aerodrome Forecast
Issued by NWS

Home | Current Version | Previous Version | Text Only | Print | Product List | Glossary On
Versions: 1 2 3 4 5 6 7 8 9 10 11 12 13 14 15 16 17 18 19 20 21 22 23
000
FTUS46 KOTX 021720
TAFMWH
TAF
KMWH 021720Z 0218/0318 22009KT P6SM FEW250
     FM022200 23015G23KT P6SM FEW250
     FM030000 27028G35KT P6SM SCT060 BKN150
     FM030600 26020KT P6SM SCT100 BKN150
     FM031500 32014KT P6SM SCT080=

USA.gov is the U.S. government's official web portal to all federal, state and local government web resources and services.